createdAt,value
2017-10-06T00:00:33.699Z,9.50
2017-10-06T00:03:01.325Z,9.60
2017-10-06T00:05:28.887Z,9.60
2017-10-06T00:07:56.639Z,9.70
2017-10-06T00:10:24.957Z,9.70
2017-10-06T00:12:52.531Z,9.70
2017-10-06T00:15:20.191Z,9.70
2017-10-06T00:17:47.746Z,9.70
2017-10-06T00:20:15.351Z,9.70
2017-10-06T00:22:43.670Z,9.70
2017-10-06T00:25:11.264Z,9.70
2017-10-06T00:27:38.911Z,9.60
2017-10-06T00:30:06.474Z,9.50
2017-10-06T00:32:34.068Z,9.40
2017-10-06T00:35:02.408Z,9.20
2017-10-06T00:37:29.968Z,9.30
2017-10-06T00:39:57.546Z,9.30
2017-10-06T00:42:25.199Z,9.20
2017-10-06T00:44:52.771Z,9.20
2017-10-06T00:47:20.347Z,9.20
2017-10-06T00:49:48.837Z,9.00
2017-10-06T00:52:16.422Z,9.00
2017-10-06T00:54:44.755Z,9.20
2017-10-06T00:57:12.319Z,9.10
2017-10-06T00:59:39.865Z,9.10
2017-10-06T01:02:07.420Z,9.10
2017-10-06T01:04:35.035Z,8.90
2017-10-06T01:07:02.624Z,9.00
2017-10-06T01:09:30.276Z,9.00
2017-10-06T01:11:58.587Z,8.90
2017-10-06T01:14:26.140Z,8.80
2017-10-06T01:16:53.723Z,8.80
2017-10-06T01:19:22.271Z,8.90
2017-10-06T01:21:49.846Z,8.80
2017-10-06T01:24:17.419Z,8.90
2017-10-06T01:26:44.983Z,8.90
2017-10-06T01:29:12.547Z,8.80
2017-10-06T01:31:40.128Z,8.80
2017-10-06T01:34:07.687Z,8.80
2017-10-06T01:36:35.251Z,8.70
2017-10-06T01:39:02.832Z,8.70
2017-10-06T01:41:30.396Z,8.70
2017-10-06T01:43:58.859Z,8.80
2017-10-06T01:46:26.413Z,8.70
2017-10-06T01:48:53.979Z,8.70
2017-10-06T01:51:21.556Z,8.60
2017-10-06T01:53:49.119Z,8.60
2017-10-06T01:56:16.682Z,8.60
2017-10-06T01:58:44.250Z,8.50
2017-10-06T02:01:11.818Z,8.40
2017-10-06T02:03:39.374Z,8.50
2017-10-06T02:06:06.942Z,8.50
2017-10-06T02:08:35.311Z,8.80
2017-10-06T02:11:02.856Z,8.70
2017-10-06T02:13:30.420Z,8.90
2017-10-06T02:15:58.144Z,8.90
2017-10-06T02:18:25.722Z,8.90
2017-10-06T02:20:53.283Z,9.00
2017-10-06T02:23:20.964Z,9.00
2017-10-06T02:25:48.523Z,9.20
2017-10-06T02:28:16.111Z,9.30
2017-10-06T02:30:43.667Z,9.40
2017-10-06T02:33:11.259Z,9.40
2017-10-06T02:35:39.623Z,9.40
2017-10-06T02:38:07.196Z,9.40
2017-10-06T02:40:35.529Z,9.20
2017-10-06T02:43:03.178Z,9.20
2017-10-06T02:45:30.764Z,9.10
2017-10-06T02:47:58.318Z,9.00
2017-10-06T02:50:25.887Z,8.90
2017-10-06T02:52:53.545Z,8.70
2017-10-06T02:55:21.106Z,8.60
2017-10-06T02:57:48.687Z,8.60
2017-10-06T03:00:16.234Z,8.70
2017-10-06T03:02:45.184Z,8.70
2017-10-06T03:05:13.520Z,8.90
2017-10-06T03:07:41.104Z,8.90
2017-10-06T03:10:08.683Z,8.90
2017-10-06T03:12:36.243Z,9.10
2017-10-06T03:15:04.044Z,9.30
2017-10-06T03:17:31.591Z,9.50
2017-10-06T03:19:59.241Z,9.60
2017-10-06T03:22:26.811Z,9.70
2017-10-06T03:24:54.395Z,9.70
2017-10-06T03:27:21.978Z,9.70
2017-10-06T03:29:49.539Z,9.60
2017-10-06T03:32:17.107Z,9.60
2017-10-06T03:34:44.690Z,9.60
2017-10-06T03:37:13.030Z,9.50
2017-10-06T03:39:40.616Z,9.50
2017-10-06T03:42:08.186Z,9.60
2017-10-06T03:44:35.770Z,9.60
2017-10-06T03:47:03.366Z,9.60
2017-10-06T03:49:30.922Z,9.60
2017-10-06T03:51:58.517Z,9.60
2017-10-06T03:54:26.881Z,9.70
2017-10-06T03:56:54.447Z,9.70
2017-10-06T03:59:22.802Z,9.70
2017-10-06T04:01:50.363Z,9.70
2017-10-06T04:04:17.936Z,9.70
2017-10-06T04:06:45.503Z,9.80
2017-10-06T04:09:13.052Z,9.70
2017-10-06T04:11:40.622Z,9.80
2017-10-06T04:14:08.957Z,9.80
2017-10-06T04:16:36.543Z,9.80
2017-10-06T04:19:04.102Z,9.80
2017-10-06T04:21:31.654Z,9.80
2017-10-06T04:23:59.232Z,9.80
2017-10-06T04:26:26.792Z,9.90
2017-10-06T04:28:54.387Z,9.80
2017-10-06T04:31:22.715Z,9.90
2017-10-06T04:33:50.300Z,9.80
2017-10-06T04:36:17.919Z,9.90
2017-10-06T04:38:45.581Z,9.90
2017-10-06T04:41:13.164Z,9.90
2017-10-06T04:43:40.746Z,9.90
2017-10-06T04:46:09.103Z,9.90
2017-10-06T04:48:36.787Z,9.90
2017-10-06T04:51:04.345Z,9.90
2017-10-06T04:53:31.913Z,9.80
2017-10-06T04:55:59.497Z,9.80
2017-10-06T04:58:27.099Z,9.70
2017-10-06T05:00:54.642Z,9.80
2017-10-06T05:03:22.219Z,9.70
2017-10-06T05:05:49.831Z,9.80
2017-10-06T05:08:17.403Z,9.80
2017-10-06T05:10:45.737Z,9.70
2017-10-06T05:13:13.311Z,9.70
2017-10-06T05:15:40.894Z,9.70
2017-10-06T05:18:08.473Z,9.70
2017-10-06T05:20:36.807Z,9.70
2017-10-06T05:23:04.388Z,9.70
2017-10-06T05:25:31.943Z,9.60
2017-10-06T05:27:59.500Z,9.60
2017-10-06T05:30:27.096Z,9.60
2017-10-06T05:32:55.415Z,9.60
2017-10-06T05:35:23.024Z,9.50
2017-10-06T05:37:50.595Z,9.60
2017-10-06T05:40:19.037Z,9.60
2017-10-06T05:42:46.630Z,9.50
2017-10-06T05:45:15.093Z,9.50
2017-10-06T05:47:42.672Z,9.50
2017-10-06T05:50:10.235Z,9.50
2017-10-06T05:52:38.568Z,9.50
2017-10-06T05:55:06.297Z,9.40
2017-10-06T05:57:33.900Z,9.50
2017-10-06T06:00:01.483Z,9.50
2017-10-06T06:02:29.046Z,9.50
2017-10-06T06:04:56.624Z,9.60
2017-10-06T06:07:24.194Z,9.60
2017-10-06T06:09:52.564Z,9.50
2017-10-06T06:12:20.143Z,9.50
2017-10-06T06:14:48.474Z,9.40
2017-10-06T06:17:16.156Z,9.40
2017-10-06T06:19:43.787Z,9.40
2017-10-06T06:22:11.366Z,9.40
2017-10-06T06:24:38.963Z,9.30
2017-10-06T06:27:07.290Z,9.30
2017-10-06T06:29:34.891Z,9.20
2017-10-06T06:32:03.234Z,9.40
2017-10-06T06:34:30.810Z,9.40
2017-10-06T06:36:58.394Z,9.50
2017-10-06T06:39:25.950Z,9.60
2017-10-06T06:41:53.616Z,9.70
2017-10-06T06:44:21.195Z,9.80
2017-10-06T06:46:48.768Z,9.90
2017-10-06T06:49:17.108Z,9.80
2017-10-06T06:51:44.680Z,9.80
2017-10-06T06:54:12.264Z,9.80
2017-10-06T06:56:40.736Z,9.80
2017-10-06T06:59:08.320Z,9.80
2017-10-06T07:01:36.675Z,9.70
2017-10-06T07:04:05.008Z,9.80
2017-10-06T07:06:32.701Z,9.70
2017-10-06T07:09:00.435Z,9.80
2017-10-06T07:11:28.024Z,9.90
2017-10-06T07:13:55.575Z,10.00
2017-10-06T07:16:23.173Z,10.10
2017-10-06T07:18:50.779Z,10.10
2017-10-06T07:21:18.342Z,10.10
2017-10-06T07:23:45.926Z,10.20
2017-10-06T07:26:13.489Z,10.40
2017-10-06T07:28:41.043Z,10.70
2017-10-06T07:31:08.661Z,10.80
2017-10-06T07:33:36.222Z,11.00
2017-10-06T07:36:03.811Z,11.00
2017-10-06T07:38:32.222Z,10.80
2017-10-06T07:40:59.995Z,10.80
2017-10-06T07:43:27.588Z,10.80
2017-10-06T07:45:55.918Z,10.90
2017-10-06T07:48:23.533Z,10.90
2017-10-06T07:50:51.927Z,10.90
2017-10-06T07:53:19.478Z,10.90
2017-10-06T07:55:47.836Z,10.90
2017-10-06T07:58:15.426Z,10.90
2017-10-06T08:00:42.982Z,10.90
2017-10-06T08:03:11.341Z,11.10
2017-10-06T08:05:39.864Z,11.20
2017-10-06T08:08:07.462Z,11.20
2017-10-06T08:10:35.048Z,11.40
2017-10-06T08:13:03.421Z,11.90
2017-10-06T08:15:30.995Z,11.80
2017-10-06T08:17:59.351Z,11.80
2017-10-06T08:20:26.950Z,11.80
2017-10-06T08:22:54.537Z,11.60
2017-10-06T08:25:22.086Z,11.40
2017-10-06T08:27:49.663Z,11.30
2017-10-06T08:30:17.287Z,11.30
2017-10-06T08:32:45.640Z,11.60
2017-10-06T08:35:14.129Z,11.60
2017-10-06T08:37:41.725Z,11.60
2017-10-06T08:40:09.299Z,11.60
2017-10-06T08:42:36.867Z,11.60
2017-10-06T08:45:04.448Z,11.70
2017-10-06T08:47:32.086Z,11.60
2017-10-06T08:49:59.671Z,11.80
2017-10-06T08:52:27.237Z,12.70
2017-10-06T08:54:54.804Z,13.30
2017-10-06T08:57:22.379Z,13.10
2017-10-06T08:59:49.947Z,12.90
2017-10-06T09:02:17.531Z,12.70
2017-10-06T09:04:45.099Z,12.60
2017-10-06T09:07:12.689Z,12.70
2017-10-06T09:09:40.258Z,12.70
2017-10-06T09:12:07.829Z,12.60
2017-10-06T09:14:35.413Z,12.60
2017-10-06T09:17:02.994Z,12.50
2017-10-06T09:19:31.323Z,12.10
2017-10-06T09:21:58.931Z,12.10
2017-10-06T09:24:27.270Z,11.80
2017-10-06T09:26:54.851Z,11.80
2017-10-06T09:29:22.451Z,11.60
2017-10-06T09:31:50.028Z,11.50
2017-10-06T09:34:17.583Z,11.40
2017-10-06T09:36:45.348Z,11.20
2017-10-06T09:39:13.011Z,11.10
2017-10-06T09:41:40.867Z,11.00
2017-10-06T09:44:08.455Z,11.00
2017-10-06T09:46:36.093Z,10.90
2017-10-06T09:49:03.663Z,10.80
2017-10-06T09:51:31.239Z,10.80
2017-10-06T09:53:58.826Z,10.80
2017-10-06T09:56:26.395Z,10.80
2017-10-06T09:58:53.956Z,10.90
2017-10-06T10:01:21.586Z,10.90
2017-10-06T10:03:49.163Z,10.90
2017-10-06T10:06:16.746Z,10.90
2017-10-06T10:08:44.319Z,10.90
2017-10-06T10:11:12.675Z,11.00
2017-10-06T10:13:40.242Z,10.90
2017-10-06T10:16:08.696Z,11.50
2017-10-06T10:18:36.288Z,11.50
2017-10-06T10:21:03.869Z,11.90
2017-10-06T10:23:32.292Z,12.40
2017-10-06T10:25:59.942Z,12.40
2017-10-06T10:28:27.524Z,12.80
2017-10-06T10:30:55.103Z,13.10
2017-10-06T10:33:22.711Z,12.80
2017-10-06T10:35:51.023Z,14.00
2017-10-06T10:38:18.604Z,14.00
2017-10-06T10:40:46.177Z,14.30
2017-10-06T10:43:13.727Z,13.80
2017-10-06T10:45:41.299Z,14.10
2017-10-06T10:48:09.741Z,14.80
2017-10-06T10:50:37.395Z,14.80
2017-10-06T10:53:04.958Z,14.70
2017-10-06T10:55:32.536Z,14.30
2017-10-06T10:58:00.142Z,14.90
2017-10-06T11:00:27.722Z,15.20
2017-10-06T11:02:56.056Z,15.60
2017-10-06T11:05:23.761Z,15.50
2017-10-06T11:07:52.085Z,16.50
2017-10-06T11:10:19.663Z,16.50
2017-10-06T11:12:47.328Z,16.70
2017-10-06T11:15:14.899Z,15.70
2017-10-06T11:17:42.482Z,15.60
2017-10-06T11:20:10.818Z,14.20
2017-10-06T11:22:38.408Z,14.10
2017-10-06T11:25:06.008Z,13.90
2017-10-06T11:27:33.598Z,14.30
2017-10-06T11:30:01.174Z,14.90
2017-10-06T11:32:28.755Z,14.90
2017-10-06T11:34:56.333Z,15.30
2017-10-06T11:37:24.683Z,15.70
2017-10-06T11:39:52.245Z,15.70
2017-10-06T11:42:19.878Z,15.20
2017-10-06T11:44:47.654Z,14.20
2017-10-06T11:47:15.223Z,13.50
2017-10-06T11:49:42.910Z,13.20
2017-10-06T11:52:11.295Z,12.70
2017-10-06T11:54:39.638Z,12.70
2017-10-06T11:57:07.799Z,12.70
2017-10-06T11:59:35.595Z,13.00
2017-10-06T12:02:03.163Z,13.20
2017-10-06T12:04:31.631Z,13.20
2017-10-06T12:06:59.207Z,13.10
2017-10-06T12:09:26.735Z,13.20
2017-10-06T12:11:54.327Z,13.10
2017-10-06T12:14:21.944Z,12.80
2017-10-06T12:16:50.059Z,12.60
2017-10-06T12:19:17.629Z,12.40
2017-10-06T12:21:45.203Z,12.00
2017-10-06T12:24:12.792Z,11.90
2017-10-06T12:26:40.344Z,11.80
2017-10-06T12:29:08.685Z,11.90
2017-10-06T12:31:36.277Z,11.90
2017-10-06T12:34:13.753Z,11.80
2017-10-06T12:36:42.311Z,11.60
2017-10-06T12:39:10.077Z,11.60
2017-10-06T12:41:38.380Z,12.10
2017-10-06T12:44:06.035Z,13.40
2017-10-06T12:46:33.712Z,14.30
2017-10-06T12:49:02.296Z,15.10
2017-10-06T12:51:29.939Z,15.10
2017-10-06T12:53:57.532Z,15.10
2017-10-06T12:56:25.903Z,16.20
2017-10-06T12:58:53.714Z,16.20
2017-10-06T13:01:21.421Z,15.40
2017-10-06T13:03:49.101Z,15.40
2017-10-06T13:06:16.834Z,14.80
2017-10-06T13:08:44.402Z,13.90
2017-10-06T13:11:11.994Z,13.40
2017-10-06T13:13:40.368Z,12.60
2017-10-06T13:16:08.806Z,12.60
2017-10-06T13:18:36.374Z,12.50
2017-10-06T13:21:03.932Z,12.70
2017-10-06T13:23:31.527Z,12.80
2017-10-06T13:25:59.871Z,13.80
2017-10-06T13:28:27.472Z,13.80
2017-10-06T13:30:56.718Z,14.30
2017-10-06T13:33:24.323Z,14.20
2017-10-06T13:35:51.881Z,13.90
2017-10-06T13:38:20.299Z,14.00
2017-10-06T13:40:47.935Z,14.00
2017-10-06T13:43:16.374Z,14.90
2017-10-06T13:45:43.993Z,14.90
2017-10-06T13:48:12.626Z,15.00
2017-10-06T13:50:40.446Z,14.90
2017-10-06T13:53:08.145Z,15.10
2017-10-06T13:55:35.744Z,15.50
2017-10-06T13:58:04.070Z,15.40
2017-10-06T14:00:31.660Z,15.40
2017-10-06T14:03:00.099Z,15.50
2017-10-06T14:05:27.855Z,15.50
2017-10-06T14:07:55.488Z,15.60
2017-10-06T14:10:23.815Z,15.80
2017-10-06T14:12:51.459Z,15.70
2017-10-06T14:15:19.040Z,15.50
2017-10-06T14:17:46.660Z,15.40
2017-10-06T14:20:15.047Z,15.00
2017-10-06T14:22:42.663Z,15.00
2017-10-06T14:25:10.251Z,14.50
2017-10-06T14:27:38.630Z,14.10
2017-10-06T14:30:06.244Z,14.00
2017-10-06T14:32:33.887Z,14.30
2017-10-06T14:35:01.467Z,14.70
2017-10-06T14:37:29.055Z,14.90
2017-10-06T14:39:56.657Z,14.70
2017-10-06T14:42:24.271Z,14.70
2017-10-06T14:44:52.110Z,14.90
2017-10-06T14:47:19.678Z,15.10
2017-10-06T14:49:47.292Z,15.20
2017-10-06T14:52:14.862Z,15.10
2017-10-06T14:54:43.249Z,14.60
2017-10-06T14:57:11.591Z,14.40
2017-10-06T14:59:39.333Z,14.40
2017-10-06T15:02:06.932Z,14.20
2017-10-06T15:04:34.493Z,14.00
2017-10-06T15:07:02.840Z,13.90
2017-10-06T15:09:30.412Z,13.80
2017-10-06T15:11:58.150Z,13.80
2017-10-06T15:14:25.730Z,13.80
2017-10-06T15:16:53.534Z,13.90
2017-10-06T15:19:21.117Z,14.10
2017-10-06T15:21:49.635Z,14.30
2017-10-06T15:24:17.211Z,14.30
2017-10-06T15:26:44.803Z,14.20
2017-10-06T15:29:13.159Z,14.10
2017-10-06T15:31:40.732Z,14.10
2017-10-06T15:34:08.400Z,14.30
2017-10-06T15:36:36.854Z,14.60
2017-10-06T15:39:04.449Z,14.60
2017-10-06T15:41:32.039Z,14.40
2017-10-06T15:43:59.608Z,14.30
2017-10-06T15:46:27.936Z,13.90
2017-10-06T15:48:55.527Z,13.90
2017-10-06T15:51:23.189Z,13.80
2017-10-06T15:53:50.782Z,13.80
2017-10-06T15:56:18.360Z,13.80
2017-10-06T15:58:46.715Z,13.60
2017-10-06T16:01:15.093Z,13.40
2017-10-06T16:03:42.701Z,13.40
2017-10-06T16:06:10.281Z,13.30
2017-10-06T16:08:38.016Z,13.20
2017-10-06T16:11:05.656Z,13.10
2017-10-06T16:13:34.006Z,12.80
2017-10-06T16:16:01.678Z,12.80
2017-10-06T16:18:29.314Z,12.70
2017-10-06T16:20:56.930Z,12.50
2017-10-06T16:23:25.295Z,12.40
2017-10-06T16:25:53.500Z,12.40
2017-10-06T16:28:21.265Z,12.30
2017-10-06T16:30:48.872Z,12.20
2017-10-06T16:33:16.469Z,12.20
2017-10-06T16:35:44.063Z,12.10
2017-10-06T16:38:11.735Z,12.10
2017-10-06T16:40:39.379Z,11.90
2017-10-06T16:43:06.988Z,11.90
2017-10-06T16:45:34.620Z,11.80
2017-10-06T16:48:02.208Z,11.80
2017-10-06T16:50:30.289Z,11.80
2017-10-06T16:52:58.647Z,11.70
2017-10-06T16:55:26.271Z,11.70
2017-10-06T16:57:53.850Z,11.70
2017-10-06T17:00:21.490Z,11.70
2017-10-06T17:02:49.082Z,11.60
2017-10-06T17:05:17.422Z,11.50
2017-10-06T17:07:45.174Z,11.50
2017-10-06T17:10:12.752Z,11.40
2017-10-06T17:12:40.467Z,11.40
2017-10-06T17:15:08.066Z,11.40
2017-10-06T17:17:36.330Z,11.40
2017-10-06T17:20:04.010Z,11.40
2017-10-06T17:22:31.954Z,11.40
2017-10-06T17:24:59.636Z,11.40
2017-10-06T17:27:28.285Z,11.30
2017-10-06T17:29:57.531Z,11.30
2017-10-06T17:32:25.494Z,11.30
2017-10-06T17:35:03.507Z,11.20
2017-10-06T17:37:31.073Z,11.10
2017-10-06T17:39:58.641Z,11.20
2017-10-06T17:42:26.243Z,11.20
2017-10-06T17:44:54.586Z,11.20
2017-10-06T17:47:22.166Z,11.20
2017-10-06T17:49:49.750Z,11.30
2017-10-06T17:52:17.344Z,11.20
2017-10-06T17:54:45.058Z,11.30
2017-10-06T17:57:13.420Z,11.20
2017-10-06T17:59:42.555Z,11.20
2017-10-06T18:02:10.411Z,11.20
2017-10-06T18:04:38.056Z,11.10
2017-10-06T18:07:06.416Z,11.10
2017-10-06T18:09:33.985Z,11.10
2017-10-06T18:12:02.347Z,11.10
2017-10-06T18:14:29.915Z,11.00
2017-10-06T18:16:57.613Z,11.10
2017-10-06T18:19:25.220Z,11.00
2017-10-06T18:21:52.840Z,11.10
2017-10-06T18:24:21.484Z,11.10
2017-10-06T18:26:49.079Z,11.10
2017-10-06T18:29:18.180Z,11.10
2017-10-06T18:31:46.618Z,11.00
2017-10-06T18:34:14.215Z,11.00
2017-10-06T18:36:41.799Z,11.00
2017-10-06T18:39:10.167Z,10.90
2017-10-06T18:41:37.877Z,10.90
2017-10-06T18:44:05.463Z,10.80
2017-10-06T18:46:33.066Z,10.80
2017-10-06T18:49:00.633Z,10.70
2017-10-06T18:51:28.226Z,10.60
2017-10-06T18:53:55.825Z,10.50
2017-10-06T18:56:23.648Z,10.50
2017-10-06T18:58:51.283Z,10.50
2017-10-06T19:01:18.863Z,10.50
2017-10-06T19:03:46.795Z,10.50
2017-10-06T19:06:15.132Z,10.60
2017-10-06T19:08:42.816Z,10.60
2017-10-06T19:11:10.411Z,10.50
2017-10-06T19:13:38.027Z,10.50
2017-10-06T19:16:05.711Z,10.60
2017-10-06T19:18:34.091Z,10.40
2017-10-06T19:21:01.727Z,10.40
2017-10-06T19:23:29.444Z,10.50
2017-10-06T19:25:57.183Z,10.40
2017-10-06T19:28:28.270Z,10.30
2017-10-06T19:30:55.952Z,10.50
2017-10-06T19:33:23.589Z,10.50
2017-10-06T19:36:04.236Z,10.30
2017-10-06T19:38:32.574Z,10.20
2017-10-06T19:41:01.973Z,10.20
2017-10-06T19:43:29.573Z,10.20
2017-10-06T19:45:57.959Z,10.10
2017-10-06T19:48:27.318Z,10.10
2017-10-06T19:50:54.982Z,10.10
2017-10-06T19:53:22.571Z,10.00
2017-10-06T19:55:50.201Z,10.10
2017-10-06T19:58:17.789Z,10.20
2017-10-06T20:00:45.532Z,10.10
2017-10-06T20:03:13.138Z,10.10
2017-10-06T20:05:41.571Z,10.40
2017-10-06T20:08:09.238Z,10.40
2017-10-06T20:10:37.081Z,10.50
2017-10-06T20:13:04.768Z,10.60
2017-10-06T20:15:32.400Z,10.70
2017-10-06T20:18:00.212Z,10.70
2017-10-06T20:20:28.030Z,10.70
2017-10-06T20:22:55.835Z,10.70
2017-10-06T20:25:23.431Z,10.80
2017-10-06T20:27:53.096Z,10.80
2017-10-06T20:30:21.055Z,10.80
2017-10-06T20:32:49.599Z,10.90
2017-10-06T20:35:17.228Z,10.90
2017-10-06T20:37:44.829Z,10.90
2017-10-06T20:40:13.190Z,10.90
2017-10-06T20:42:40.785Z,11.00
2017-10-06T20:45:09.163Z,11.00
2017-10-06T20:47:36.873Z,11.00
2017-10-06T20:50:04.479Z,11.00
2017-10-06T20:52:32.819Z,11.00
2017-10-06T20:55:01.168Z,11.00
2017-10-06T20:57:28.775Z,11.00
2017-10-06T20:59:56.463Z,10.90
2017-10-06T21:02:24.031Z,10.90
2017-10-06T21:04:51.700Z,10.80
2017-10-06T21:07:19.318Z,10.80
2017-10-06T21:09:46.935Z,10.60
2017-10-06T21:12:14.516Z,10.50
2017-10-06T21:14:42.111Z,10.40
2017-10-06T21:17:09.708Z,10.50
2017-10-06T21:19:37.315Z,10.60
2017-10-06T21:22:05.571Z,10.70
2017-10-06T21:24:33.167Z,10.60
2017-10-06T21:27:00.840Z,10.70
2017-10-06T21:29:28.423Z,10.60
2017-10-06T21:31:56.787Z,10.60
2017-10-06T21:34:24.346Z,10.60
2017-10-06T21:36:51.949Z,10.60
2017-10-06T21:39:19.526Z,10.70
2017-10-06T21:41:47.112Z,10.70
2017-10-06T21:44:14.705Z,10.60
2017-10-06T21:46:43.131Z,10.50
2017-10-06T21:49:10.712Z,10.50
2017-10-06T21:51:38.281Z,10.50
2017-10-06T21:54:05.843Z,10.50
2017-10-06T21:56:33.465Z,10.50
2017-10-06T21:59:01.185Z,10.50
2017-10-06T22:01:29.519Z,10.60
2017-10-06T22:03:57.106Z,10.60
2017-10-06T22:06:24.707Z,10.60
2017-10-06T22:08:52.391Z,10.60
2017-10-06T22:11:19.963Z,10.60
2017-10-06T22:13:47.539Z,10.60
2017-10-06T22:16:15.206Z,10.60
2017-10-06T22:18:42.805Z,10.60
2017-10-06T22:21:11.168Z,10.70
2017-10-06T22:23:38.739Z,10.70
2017-10-06T22:26:06.321Z,10.70
2017-10-06T22:28:33.866Z,10.70
2017-10-06T22:31:02.280Z,10.80
2017-10-06T22:33:30.023Z,10.80
2017-10-06T22:35:57.730Z,10.70
2017-10-06T22:38:25.501Z,10.70
2017-10-06T22:40:53.062Z,10.60
2017-10-06T22:43:20.652Z,10.60
2017-10-06T22:45:48.189Z,10.60
2017-10-06T22:48:15.785Z,10.50
2017-10-06T22:50:43.412Z,10.50
2017-10-06T22:53:11.219Z,10.50
2017-10-06T22:55:38.778Z,10.50
2017-10-06T22:58:06.355Z,10.50
2017-10-06T23:00:33.910Z,10.50
2017-10-06T23:03:01.491Z,10.50
2017-10-06T23:05:29.069Z,10.40
2017-10-06T23:07:56.643Z,10.50
2017-10-06T23:10:24.227Z,10.50
2017-10-06T23:12:52.571Z,10.50
2017-10-06T23:15:21.548Z,10.50
2017-10-06T23:17:49.122Z,10.50
2017-10-06T23:20:16.703Z,10.50
2017-10-06T23:22:44.282Z,10.50
2017-10-06T23:25:11.840Z,10.50
2017-10-06T23:27:40.257Z,10.50
2017-10-06T23:30:08.021Z,10.50
2017-10-06T23:32:35.586Z,10.50
2017-10-06T23:35:03.186Z,10.50
2017-10-06T23:37:30.751Z,10.50
2017-10-06T23:39:58.330Z,10.40
2017-10-06T23:42:26.644Z,10.40
2017-10-06T23:44:54.231Z,10.40
2017-10-06T23:47:21.868Z,10.50
2017-10-06T23:49:49.430Z,10.40
2017-10-06T23:52:17.019Z,10.40
2017-10-06T23:54:44.585Z,10.40
2017-10-06T23:57:12.163Z,10.50
2017-10-06T23:59:39.735Z,10.50
